sensor_id;sensor_type;location;lat;lon;timestamp;P1;durP1;ratioP1;P2;durP2;ratioP2
11620;SDS011;5866;49.094;11.900;2022-09-17T00:00:58;52.25;;;49.33;;
11620;SDS011;5866;49.094;11.900;2022-09-17T00:03:26;38.78;;;36.53;;
11620;SDS011;5866;49.094;11.900;2022-09-17T00:05:59;22.42;;;20.92;;
11620;SDS011;5866;49.094;11.900;2022-09-17T00:08:26;17.10;;;15.97;;
11620;SDS011;5866;49.094;11.900;2022-09-17T00:10:54;18.02;;;16.85;;
11620;SDS011;5866;49.094;11.900;2022-09-17T00:13:22;16.73;;;15.73;;
11620;SDS011;5866;49.094;11.900;2022-09-17T00:15:50;20.75;;;19.35;;
11620;SDS011;5866;49.094;11.900;2022-09-17T00:18:19;22.20;;;20.90;;
11620;SDS011;5866;49.094;11.900;2022-09-17T00:20:46;22.67;;;21.37;;
11620;SDS011;5866;49.094;11.900;2022-09-17T00:23:16;35.27;;;33.23;;
11620;SDS011;5866;49.094;11.900;2022-09-17T00:25:43;29.08;;;27.20;;
11620;SDS011;5866;49.094;11.900;2022-09-17T00:28:12;50.33;;;47.37;;
11620;SDS011;5866;49.094;11.900;2022-09-17T00:30:41;39.50;;;37.17;;
11620;SDS011;5866;49.094;11.900;2022-09-17T00:33:09;29.98;;;28.25;;
11620;SDS011;5866;49.094;11.900;2022-09-17T00:35:38;24.48;;;22.95;;
11620;SDS011;5866;49.094;11.900;2022-09-17T00:38:05;44.88;;;42.25;;
11620;SDS011;5866;49.094;11.900;2022-09-17T00:40:34;57.20;;;54.05;;
11620;SDS011;5866;49.094;11.900;2022-09-17T00:43:02;57.70;;;54.40;;
11620;SDS011;5866;49.094;11.900;2022-09-17T00:45:30;90.65;;;85.85;;
11620;SDS011;5866;49.094;11.900;2022-09-17T00:47:59;73.07;;;69.10;;
11620;SDS011;5866;49.094;11.900;2022-09-17T00:50:29;70.57;;;66.70;;
11620;SDS011;5866;49.094;11.900;2022-09-17T00:53:00;83.17;;;78.53;;
11620;SDS011;5866;49.094;11.900;2022-09-17T00:55:32;99.37;;;94.13;;
11620;SDS011;5866;49.094;11.900;2022-09-17T00:58:05;74.70;;;70.40;;
11620;SDS011;5866;49.094;11.900;2022-09-17T01:00:34;78.20;;;73.67;;
11620;SDS011;5866;49.094;11.900;2022-09-17T01:03:02;76.17;;;71.87;;
11620;SDS011;5866;49.094;11.900;2022-09-17T01:05:30;76.40;;;72.17;;
11620;SDS011;5866;49.094;11.900;2022-09-17T01:08:08;85.70;;;81.17;;
11620;SDS011;5866;49.094;11.900;2022-09-17T01:10:51;64.73;;;61.20;;
11620;SDS011;5866;49.094;11.900;2022-09-17T01:13:29;102.73;;;97.30;;
11620;SDS011;5866;49.094;11.900;2022-09-17T01:16:05;83.00;;;78.20;;
11620;SDS011;5866;49.094;11.900;2022-09-17T01:18:41;80.47;;;76.15;;
11620;SDS011;5866;49.094;11.900;2022-09-17T01:21:31;59.87;;;56.33;;
11620;SDS011;5866;49.094;11.900;2022-09-17T01:24:11;68.77;;;64.90;;
11620;SDS011;5866;49.094;11.900;2022-09-17T01:26:57;93.47;;;88.37;;
11620;SDS011;5866;49.094;11.900;2022-09-17T01:29:48;67.65;;;64.00;;
11620;SDS011;5866;49.094;11.900;2022-09-17T01:32:37;76.35;;;72.28;;
11620;SDS011;5866;49.094;11.900;2022-09-17T01:35:08;78.13;;;73.93;;
11620;SDS011;5866;49.094;11.900;2022-09-17T01:37:43;74.03;;;69.95;;
11620;SDS011;5866;49.094;11.900;2022-09-17T01:40:24;75.77;;;71.63;;
11620;SDS011;5866;49.094;11.900;2022-09-17T01:42:58;82.23;;;77.93;;
11620;SDS011;5866;49.094;11.900;2022-09-17T01:45:32;101.00;;;95.77;;
11620;SDS011;5866;49.094;11.900;2022-09-17T01:48:06;84.60;;;79.90;;
11620;SDS011;5866;49.094;11.900;2022-09-17T01:50:38;87.50;;;82.50;;
11620;SDS011;5866;49.094;11.900;2022-09-17T01:53:09;71.85;;;67.93;;
11620;SDS011;5866;49.094;11.900;2022-09-17T01:55:38;60.50;;;57.07;;
11620;SDS011;5866;49.094;11.900;2022-09-17T01:58:11;74.67;;;70.50;;
11620;SDS011;5866;49.094;11.900;2022-09-17T02:00:43;86.47;;;81.77;;
11620;SDS011;5866;49.094;11.900;2022-09-17T02:03:19;90.80;;;85.73;;
11620;SDS011;5866;49.094;11.900;2022-09-17T02:05:52;83.07;;;78.53;;
11620;SDS011;5866;49.094;11.900;2022-09-17T02:08:23;89.05;;;84.22;;
11620;SDS011;5866;49.094;11.900;2022-09-17T02:10:56;77.45;;;72.88;;
11620;SDS011;5866;49.094;11.900;2022-09-17T02:13:30;103.60;;;97.90;;
11620;SDS011;5866;49.094;11.900;2022-09-17T02:16:04;79.07;;;74.57;;
11620;SDS011;5866;49.094;11.900;2022-09-17T02:18:36;103.47;;;97.97;;
11620;SDS011;5866;49.094;11.900;2022-09-17T02:21:10;83.07;;;78.20;;
11620;SDS011;5866;49.094;11.900;2022-09-17T02:23:42;67.63;;;63.90;;
11620;SDS011;5866;49.094;11.900;2022-09-17T02:26:14;80.80;;;76.47;;
11620;SDS011;5866;49.094;11.900;2022-09-17T02:28:45;53.17;;;49.97;;
11620;SDS011;5866;49.094;11.900;2022-09-17T02:31:15;30.43;;;28.67;;
11620;SDS011;5866;49.094;11.900;2022-09-17T02:33:46;26.77;;;25.20;;
11620;SDS011;5866;49.094;11.900;2022-09-17T02:36:15;33.93;;;31.57;;
11620;SDS011;5866;49.094;11.900;2022-09-17T02:38:44;42.97;;;40.57;;
11620;SDS011;5866;49.094;11.900;2022-09-17T02:41:13;37.87;;;35.63;;
11620;SDS011;5866;49.094;11.900;2022-09-17T02:43:47;35.03;;;32.73;;
11620;SDS011;5866;49.094;11.900;2022-09-17T02:46:27;43.93;;;41.23;;
11620;SDS011;5866;49.094;11.900;2022-09-17T02:52:05;29.67;;;27.87;;
11620;SDS011;5866;49.094;11.900;2022-09-17T02:54:46;36.80;;;34.60;;
11620;SDS011;5866;49.094;11.900;2022-09-17T02:57:25;32.87;;;30.63;;
11620;SDS011;5866;49.094;11.900;2022-09-17T02:59:57;20.93;;;19.47;;
11620;SDS011;5866;49.094;11.900;2022-09-17T03:02:31;20.63;;;19.13;;
11620;SDS011;5866;49.094;11.900;2022-09-17T03:05:06;29.70;;;27.70;;
11620;SDS011;5866;49.094;11.900;2022-09-17T03:07:35;21.17;;;19.57;;
11620;SDS011;5866;49.094;11.900;2022-09-17T03:10:03;24.47;;;23.07;;
11620;SDS011;5866;49.094;11.900;2022-09-17T03:12:32;23.40;;;21.80;;
11620;SDS011;5866;49.094;11.900;2022-09-17T03:15:00;22.37;;;20.93;;
11620;SDS011;5866;49.094;11.900;2022-09-17T03:17:28;27.37;;;25.47;;
11620;SDS011;5866;49.094;11.900;2022-09-17T03:19:56;24.03;;;22.33;;
11620;SDS011;5866;49.094;11.900;2022-09-17T03:22:25;20.17;;;18.80;;
11620;SDS011;5866;49.094;11.900;2022-09-17T03:24:52;19.73;;;18.20;;
11620;SDS011;5866;49.094;11.900;2022-09-17T03:27:20;21.63;;;20.10;;
11620;SDS011;5866;49.094;11.900;2022-09-17T03:29:47;19.63;;;17.93;;
11620;SDS011;5866;49.094;11.900;2022-09-17T03:32:15;19.63;;;18.13;;
11620;SDS011;5866;49.094;11.900;2022-09-17T03:34:42;22.73;;;21.30;;
11620;SDS011;5866;49.094;11.900;2022-09-17T03:37:12;15.33;;;14.23;;
11620;SDS011;5866;49.094;11.900;2022-09-17T03:39:40;17.33;;;16.10;;
11620;SDS011;5866;49.094;11.900;2022-09-17T03:42:09;15.50;;;14.00;;
11620;SDS011;5866;49.094;11.900;2022-09-17T03:44:36;12.67;;;11.50;;
11620;SDS011;5866;49.094;11.900;2022-09-17T03:47:10;32.50;;;30.13;;
11620;SDS011;5866;49.094;11.900;2022-09-17T03:49:38;18.00;;;16.53;;
11620;SDS011;5866;49.094;11.900;2022-09-17T03:52:05;18.00;;;16.33;;
11620;SDS011;5866;49.094;11.900;2022-09-17T03:54:33;17.27;;;15.77;;
11620;SDS011;5866;49.094;11.900;2022-09-17T03:57:01;29.67;;;27.67;;
11620;SDS011;5866;49.094;11.900;2022-09-17T03:59:29;28.20;;;26.47;;
11620;SDS011;5866;49.094;11.900;2022-09-17T04:01:57;21.00;;;19.30;;
11620;SDS011;5866;49.094;11.900;2022-09-17T04:04:24;12.33;;;11.27;;
11620;SDS011;5866;49.094;11.900;2022-09-17T04:06:52;32.50;;;30.57;;
11620;SDS011;5866;49.094;11.900;2022-09-17T04:09:19;14.13;;;12.97;;
11620;SDS011;5866;49.094;11.900;2022-09-17T04:11:47;15.77;;;14.53;;
11620;SDS011;5866;49.094;11.900;2022-09-17T04:14:15;15.40;;;14.20;;
11620;SDS011;5866;49.094;11.900;2022-09-17T04:16:43;20.37;;;18.93;;
11620;SDS011;5866;49.094;11.900;2022-09-17T04:19:11;28.13;;;26.50;;
11620;SDS011;5866;49.094;11.900;2022-09-17T04:21:38;12.80;;;11.70;;
11620;SDS011;5866;49.094;11.900;2022-09-17T04:24:06;19.37;;;17.73;;
11620;SDS011;5866;49.094;11.900;2022-09-17T04:26:34;13.30;;;12.10;;
11620;SDS011;5866;49.094;11.900;2022-09-17T04:29:02;14.63;;;13.07;;
11620;SDS011;5866;49.094;11.900;2022-09-17T04:31:31;18.40;;;16.70;;
11620;SDS011;5866;49.094;11.900;2022-09-17T04:33:58;16.37;;;14.83;;
11620;SDS011;5866;49.094;11.900;2022-09-17T04:36:26;17.97;;;16.63;;
11620;SDS011;5866;49.094;11.900;2022-09-17T04:38:53;13.80;;;12.70;;
11620;SDS011;5866;49.094;11.900;2022-09-17T04:41:21;14.57;;;13.20;;
11620;SDS011;5866;49.094;11.900;2022-09-17T04:43:48;14.73;;;13.50;;
11620;SDS011;5866;49.094;11.900;2022-09-17T04:46:16;14.00;;;12.90;;
11620;SDS011;5866;49.094;11.900;2022-09-17T04:48:45;19.70;;;18.23;;
11620;SDS011;5866;49.094;11.900;2022-09-17T04:51:13;18.43;;;17.33;;
11620;SDS011;5866;49.094;11.900;2022-09-17T04:53:40;20.83;;;19.67;;
11620;SDS011;5866;49.094;11.900;2022-09-17T04:56:08;38.30;;;35.43;;
11620;SDS011;5866;49.094;11.900;2022-09-17T04:58:35;12.97;;;11.80;;
11620;SDS011;5866;49.094;11.900;2022-09-17T05:01:03;16.10;;;14.87;;
11620;SDS011;5866;49.094;11.900;2022-09-17T05:03:31;23.53;;;21.90;;
11620;SDS011;5866;49.094;11.900;2022-09-17T05:05:59;13.97;;;12.77;;
11620;SDS011;5866;49.094;11.900;2022-09-17T05:08:27;12.23;;;11.23;;
11620;SDS011;5866;49.094;11.900;2022-09-17T05:10:54;14.10;;;12.70;;
11620;SDS011;5866;49.094;11.900;2022-09-17T05:13:22;13.80;;;12.80;;
11620;SDS011;5866;49.094;11.900;2022-09-17T05:15:50;15.53;;;14.23;;
11620;SDS011;5866;49.094;11.900;2022-09-17T05:18:17;13.90;;;12.50;;
11620;SDS011;5866;49.094;11.900;2022-09-17T05:20:45;12.93;;;11.90;;
11620;SDS011;5866;49.094;11.900;2022-09-17T05:23:14;14.87;;;13.67;;
11620;SDS011;5866;49.094;11.900;2022-09-17T05:25:41;13.63;;;12.17;;
11620;SDS011;5866;49.094;11.900;2022-09-17T05:28:09;15.87;;;14.50;;
11620;SDS011;5866;49.094;11.900;2022-09-17T05:30:36;12.77;;;11.80;;
11620;SDS011;5866;49.094;11.900;2022-09-17T05:33:04;22.83;;;21.13;;
11620;SDS011;5866;49.094;11.900;2022-09-17T05:35:33;15.57;;;14.57;;
11620;SDS011;5866;49.094;11.900;2022-09-17T05:38:03;12.73;;;11.43;;
11620;SDS011;5866;49.094;11.900;2022-09-17T05:40:34;15.97;;;14.83;;
11620;SDS011;5866;49.094;11.900;2022-09-17T05:43:03;18.93;;;17.33;;
11620;SDS011;5866;49.094;11.900;2022-09-17T05:45:32;16.53;;;15.23;;
11620;SDS011;5866;49.094;11.900;2022-09-17T05:48:01;13.07;;;11.77;;
11620;SDS011;5866;49.094;11.900;2022-09-17T05:50:30;17.20;;;15.97;;
11620;SDS011;5866;49.094;11.900;2022-09-17T05:53:02;11.90;;;10.50;;
11620;SDS011;5866;49.094;11.900;2022-09-17T05:55:30;11.43;;;10.33;;
11620;SDS011;5866;49.094;11.900;2022-09-17T05:58:00;16.03;;;14.80;;
11620;SDS011;5866;49.094;11.900;2022-09-17T06:00:35;14.20;;;13.00;;
11620;SDS011;5866;49.094;11.900;2022-09-17T06:03:03;13.50;;;12.40;;
11620;SDS011;5866;49.094;11.900;2022-09-17T06:05:30;18.30;;;16.93;;
11620;SDS011;5866;49.094;11.900;2022-09-17T06:07:58;18.03;;;16.23;;
11620;SDS011;5866;49.094;11.900;2022-09-17T06:10:26;22.93;;;21.20;;
11620;SDS011;5866;49.094;11.900;2022-09-17T06:12:56;59.60;;;55.53;;
11620;SDS011;5866;49.094;11.900;2022-09-17T06:15:26;12.83;;;11.63;;
11620;SDS011;5866;49.094;11.900;2022-09-17T06:17:54;12.93;;;12.00;;
11620;SDS011;5866;49.094;11.900;2022-09-17T06:20:21;21.20;;;19.67;;
11620;SDS011;5866;49.094;11.900;2022-09-17T06:22:54;13.70;;;12.53;;
11620;SDS011;5866;49.094;11.900;2022-09-17T06:25:22;17.30;;;15.90;;
11620;SDS011;5866;49.094;11.900;2022-09-17T06:27:50;50.20;;;47.20;;
11620;SDS011;5866;49.094;11.900;2022-09-17T06:30:17;40.53;;;37.97;;
11620;SDS011;5866;49.094;11.900;2022-09-17T06:32:46;17.93;;;16.40;;
11620;SDS011;5866;49.094;11.900;2022-09-17T06:35:14;12.40;;;11.43;;
11620;SDS011;5866;49.094;11.900;2022-09-17T06:37:41;20.50;;;18.97;;
11620;SDS011;5866;49.094;11.900;2022-09-17T06:40:09;34.27;;;31.63;;
11620;SDS011;5866;49.094;11.900;2022-09-17T06:42:37;18.87;;;17.50;;
11620;SDS011;5866;49.094;11.900;2022-09-17T06:45:05;24.67;;;23.07;;
11620;SDS011;5866;49.094;11.900;2022-09-17T06:47:38;27.77;;;25.73;;
11620;SDS011;5866;49.094;11.900;2022-09-17T06:50:07;44.63;;;42.17;;
11620;SDS011;5866;49.094;11.900;2022-09-17T06:52:36;75.43;;;71.13;;
11620;SDS011;5866;49.094;11.900;2022-09-17T06:55:04;24.00;;;22.40;;
11620;SDS011;5866;49.094;11.900;2022-09-17T06:57:32;76.17;;;71.87;;
11620;SDS011;5866;49.094;11.900;2022-09-17T06:59:59;65.13;;;61.43;;
11620;SDS011;5866;49.094;11.900;2022-09-17T07:02:26;62.03;;;58.23;;
11620;SDS011;5866;49.094;11.900;2022-09-17T07:04:54;31.43;;;29.30;;
11620;SDS011;5866;49.094;11.900;2022-09-17T07:07:23;30.13;;;28.23;;
11620;SDS011;5866;49.094;11.900;2022-09-17T07:09:51;30.73;;;28.83;;
11620;SDS011;5866;49.094;11.900;2022-09-17T07:12:18;23.93;;;22.23;;
11620;SDS011;5866;49.094;11.900;2022-09-17T07:14:46;18.43;;;17.33;;
11620;SDS011;5866;49.094;11.900;2022-09-17T07:17:14;28.13;;;26.00;;
11620;SDS011;5866;49.094;11.900;2022-09-17T07:19:41;25.07;;;23.47;;
11620;SDS011;5866;49.094;11.900;2022-09-17T07:22:09;21.38;;;20.08;;
11620;SDS011;5866;49.094;11.900;2022-09-17T07:24:40;19.80;;;18.07;;
11620;SDS011;5866;49.094;11.900;2022-09-17T07:27:07;20.40;;;19.20;;
11620;SDS011;5866;49.094;11.900;2022-09-17T07:29:35;19.37;;;18.10;;
11620;SDS011;5866;49.094;11.900;2022-09-17T07:32:02;16.00;;;14.90;;
11620;SDS011;5866;49.094;11.900;2022-09-17T07:34:30;13.40;;;12.50;;
11620;SDS011;5866;49.094;11.900;2022-09-17T07:36:57;12.53;;;11.73;;
11620;SDS011;5866;49.094;11.900;2022-09-17T07:39:25;27.13;;;25.03;;
11620;SDS011;5866;49.094;11.900;2022-09-17T07:41:54;18.53;;;17.50;;
11620;SDS011;5866;49.094;11.900;2022-09-17T07:44:21;27.17;;;25.67;;
11620;SDS011;5866;49.094;11.900;2022-09-17T07:46:49;29.30;;;27.70;;
11620;SDS011;5866;49.094;11.900;2022-09-17T07:49:16;30.67;;;28.87;;
11620;SDS011;5866;49.094;11.900;2022-09-17T07:51:44;24.83;;;23.43;;
11620;SDS011;5866;49.094;11.900;2022-09-17T07:54:12;20.07;;;18.97;;
11620;SDS011;5866;49.094;11.900;2022-09-17T07:56:39;16.37;;;15.37;;
11620;SDS011;5866;49.094;11.900;2022-09-17T07:59:09;14.43;;;13.53;;
11620;SDS011;5866;49.094;11.900;2022-09-17T08:01:36;20.57;;;19.13;;
11620;SDS011;5866;49.094;11.900;2022-09-17T08:04:04;24.20;;;22.77;;
11620;SDS011;5866;49.094;11.900;2022-09-17T08:06:35;22.90;;;21.60;;
11620;SDS011;5866;49.094;11.900;2022-09-17T08:09:03;25.17;;;23.67;;
11620;SDS011;5866;49.094;11.900;2022-09-17T08:11:31;20.73;;;19.43;;
11620;SDS011;5866;49.094;11.900;2022-09-17T08:14:20;16.87;;;15.63;;
11620;SDS011;5866;49.094;11.900;2022-09-17T08:16:54;16.40;;;15.53;;
11620;SDS011;5866;49.094;11.900;2022-09-17T08:19:22;21.60;;;20.43;;
11620;SDS011;5866;49.094;11.900;2022-09-17T08:21:50;19.13;;;17.97;;
11620;SDS011;5866;49.094;11.900;2022-09-17T08:24:18;18.50;;;17.43;;
11620;SDS011;5866;49.094;11.900;2022-09-17T08:26:45;15.63;;;14.63;;
11620;SDS011;5866;49.094;11.900;2022-09-17T08:29:13;19.93;;;18.83;;
11620;SDS011;5866;49.094;11.900;2022-09-17T08:31:42;15.07;;;14.23;;
11620;SDS011;5866;49.094;11.900;2022-09-17T08:34:10;21.33;;;20.10;;
11620;SDS011;5866;49.094;11.900;2022-09-17T08:36:38;20.70;;;19.60;;
11620;SDS011;5866;49.094;11.900;2022-09-17T08:39:05;24.53;;;23.03;;
11620;SDS011;5866;49.094;11.900;2022-09-17T08:41:36;16.90;;;16.00;;
11620;SDS011;5866;49.094;11.900;2022-09-17T08:44:25;15.07;;;14.10;;
11620;SDS011;5866;49.094;11.900;2022-09-17T08:46:59;15.30;;;14.30;;
11620;SDS011;5866;49.094;11.900;2022-09-17T08:49:31;12.77;;;11.97;;
11620;SDS011;5866;49.094;11.900;2022-09-17T08:52:17;8.00;;;7.47;;
11620;SDS011;5866;49.094;11.900;2022-09-17T08:54:55;10.17;;;9.53;;
11620;SDS011;5866;49.094;11.900;2022-09-17T08:57:31;31.50;;;29.73;;
11620;SDS011;5866;49.094;11.900;2022-09-17T09:00:06;19.53;;;18.43;;
11620;SDS011;5866;49.094;11.900;2022-09-17T09:02:42;12.37;;;11.57;;
11620;SDS011;5866;49.094;11.900;2022-09-17T09:05:35;11.50;;;10.73;;
11620;SDS011;5866;49.094;11.900;2022-09-17T09:08:11;19.73;;;18.13;;
11620;SDS011;5866;49.094;11.900;2022-09-17T09:10:44;27.07;;;25.53;;
11620;SDS011;5866;49.094;11.900;2022-09-17T09:13:16;19.40;;;18.10;;
11620;SDS011;5866;49.094;11.900;2022-09-17T09:15:48;17.50;;;16.40;;
11620;SDS011;5866;49.094;11.900;2022-09-17T09:18:23;21.33;;;19.97;;
11620;SDS011;5866;49.094;11.900;2022-09-17T09:20:52;22.93;;;21.57;;
11620;SDS011;5866;49.094;11.900;2022-09-17T09:23:26;15.43;;;14.37;;
11620;SDS011;5866;49.094;11.900;2022-09-17T09:26:02;26.63;;;25.07;;
11620;SDS011;5866;49.094;11.900;2022-09-17T09:29:00;25.57;;;23.73;;
11620;SDS011;5866;49.094;11.900;2022-09-17T09:31:39;12.43;;;11.40;;
11620;SDS011;5866;49.094;11.900;2022-09-17T09:34:19;14.27;;;13.37;;
11620;SDS011;5866;49.094;11.900;2022-09-17T09:36:48;31.67;;;29.87;;
11620;SDS011;5866;49.094;11.900;2022-09-17T09:39:18;10.67;;;9.70;;
11620;SDS011;5866;49.094;11.900;2022-09-17T09:41:51;19.53;;;18.23;;
11620;SDS011;5866;49.094;11.900;2022-09-17T09:44:22;24.40;;;22.90;;
11620;SDS011;5866;49.094;11.900;2022-09-17T09:49:56;15.10;;;13.90;;
11620;SDS011;5866;49.094;11.900;2022-09-17T09:52:39;17.93;;;16.70;;
11620;SDS011;5866;49.094;11.900;2022-09-17T09:55:22;27.47;;;25.90;;
11620;SDS011;5866;49.094;11.900;2022-09-17T09:58:04;62.63;;;58.63;;
11620;SDS011;5866;49.094;11.900;2022-09-17T10:00:46;15.83;;;14.77;;
11620;SDS011;5866;49.094;11.900;2022-09-17T10:03:14;17.20;;;16.10;;
11620;SDS011;5866;49.094;11.900;2022-09-17T10:05:52;24.20;;;22.40;;
11620;SDS011;5866;49.094;11.900;2022-09-17T10:08:22;11.07;;;10.20;;
11620;SDS011;5866;49.094;11.900;2022-09-17T10:10:54;15.17;;;14.07;;
11620;SDS011;5866;49.094;11.900;2022-09-17T10:13:23;16.40;;;15.10;;
11620;SDS011;5866;49.094;11.900;2022-09-17T10:15:51;13.60;;;12.47;;
11620;SDS011;5866;49.094;11.900;2022-09-17T10:18:19;17.70;;;16.40;;
11620;SDS011;5866;49.094;11.900;2022-09-17T10:20:53;12.47;;;11.33;;
11620;SDS011;5866;49.094;11.900;2022-09-17T10:23:23;14.20;;;12.90;;
11620;SDS011;5866;49.094;11.900;2022-09-17T10:25:52;18.37;;;17.07;;
11620;SDS011;5866;49.094;11.900;2022-09-17T10:31:12;35.40;;;33.33;;
11620;SDS011;5866;49.094;11.900;2022-09-17T10:33:49;70.65;;;66.43;;
11620;SDS011;5866;49.094;11.900;2022-09-17T10:39:28;39.28;;;36.50;;
11620;SDS011;5866;49.094;11.900;2022-09-17T10:41:58;26.23;;;24.42;;
11620;SDS011;5866;49.094;11.900;2022-09-17T10:44:27;32.65;;;30.52;;
11620;SDS011;5866;49.094;11.900;2022-09-17T10:47:00;27.00;;;25.17;;
11620;SDS011;5866;49.094;11.900;2022-09-17T10:49:38;46.10;;;43.28;;
11620;SDS011;5866;49.094;11.900;2022-09-17T10:52:12;42.85;;;40.35;;
11620;SDS011;5866;49.094;11.900;2022-09-17T10:58:08;50.40;;;46.95;;
11620;SDS011;5866;49.094;11.900;2022-09-17T11:00:43;35.35;;;33.25;;
11620;SDS011;5866;49.094;11.900;2022-09-17T11:03:29;38.75;;;36.35;;
11620;SDS011;5866;49.094;11.900;2022-09-17T11:06:24;47.65;;;44.80;;
11620;SDS011;5866;49.094;11.900;2022-09-17T11:09:14;59.65;;;55.78;;
11620;SDS011;5866;49.094;11.900;2022-09-17T11:11:57;45.97;;;43.28;;
11620;SDS011;5866;49.094;11.900;2022-09-17T11:14:38;44.70;;;41.95;;
11620;SDS011;5866;49.094;11.900;2022-09-17T11:17:22;53.17;;;49.72;;
11620;SDS011;5866;49.094;11.900;2022-09-17T11:20:03;39.55;;;37.20;;
11620;SDS011;5866;49.094;11.900;2022-09-17T11:22:36;30.83;;;28.90;;
11620;SDS011;5866;49.094;11.900;2022-09-17T11:25:19;28.27;;;26.70;;
11620;SDS011;5866;49.094;11.900;2022-09-17T11:28:02;33.00;;;31.08;;
11620;SDS011;5866;49.094;11.900;2022-09-17T11:30:40;31.52;;;29.55;;
11620;SDS011;5866;49.094;11.900;2022-09-17T11:33:24;34.83;;;32.45;;
11620;SDS011;5866;49.094;11.900;2022-09-17T11:36:22;23.67;;;21.98;;
11620;SDS011;5866;49.094;11.900;2022-09-17T11:38:55;27.83;;;26.05;;
11620;SDS011;5866;49.094;11.900;2022-09-17T11:41:27;23.02;;;21.40;;
11620;SDS011;5866;49.094;11.900;2022-09-17T11:44:02;24.25;;;22.70;;
11620;SDS011;5866;49.094;11.900;2022-09-17T11:46:37;23.27;;;21.85;;
11620;SDS011;5866;49.094;11.900;2022-09-17T11:49:11;24.27;;;22.63;;
11620;SDS011;5866;49.094;11.900;2022-09-17T11:51:47;22.40;;;20.80;;
11620;SDS011;5866;49.094;11.900;2022-09-17T11:54:20;37.72;;;35.17;;
11620;SDS011;5866;49.094;11.900;2022-09-17T11:56:55;31.00;;;29.00;;
11620;SDS011;5866;49.094;11.900;2022-09-17T11:59:36;30.73;;;28.83;;
11620;SDS011;5866;49.094;11.900;2022-09-17T12:02:13;35.67;;;33.50;;
11620;SDS011;5866;49.094;11.900;2022-09-17T12:04:48;28.77;;;27.08;;
11620;SDS011;5866;49.094;11.900;2022-09-17T12:07:34;23.63;;;22.13;;
11620;SDS011;5866;49.094;11.900;2022-09-17T12:10:17;12.48;;;6.90;;
11620;SDS011;5866;49.094;11.900;2022-09-17T12:13:01;9.18;;;7.03;;
11620;SDS011;5866;49.094;11.900;2022-09-17T12:15:39;12.20;;;10.98;;
11620;SDS011;5866;49.094;11.900;2022-09-17T12:18:20;12.32;;;11.10;;
11620;SDS011;5866;49.094;11.900;2022-09-17T12:20:59;19.13;;;17.88;;
11620;SDS011;5866;49.094;11.900;2022-09-17T12:23:32;22.00;;;20.30;;
11620;SDS011;5866;49.094;11.900;2022-09-17T12:26:10;15.02;;;13.93;;
11620;SDS011;5866;49.094;11.900;2022-09-17T12:28:51;10.75;;;9.77;;
11620;SDS011;5866;49.094;11.900;2022-09-17T12:31:27;10.05;;;9.43;;
11620;SDS011;5866;49.094;11.900;2022-09-17T12:34:05;18.70;;;17.42;;
11620;SDS011;5866;49.094;11.900;2022-09-17T12:36:48;36.10;;;33.95;;
11620;SDS011;5866;49.094;11.900;2022-09-17T12:39:28;25.40;;;23.83;;
11620;SDS011;5866;49.094;11.900;2022-09-17T12:42:11;39.33;;;37.17;;
11620;SDS011;5866;49.094;11.900;2022-09-17T12:45:01;16.52;;;15.43;;
11620;SDS011;5866;49.094;11.900;2022-09-17T12:47:53;32.10;;;30.23;;
11620;SDS011;5866;49.094;11.900;2022-09-17T12:50:42;29.02;;;27.30;;
11620;SDS011;5866;49.094;11.900;2022-09-17T12:53:21;19.50;;;18.33;;
11620;SDS011;5866;49.094;11.900;2022-09-17T12:55:59;31.30;;;29.35;;
11620;SDS011;5866;49.094;11.900;2022-09-17T12:58:55;27.40;;;25.60;;
11620;SDS011;5866;49.094;11.900;2022-09-17T13:01:31;36.13;;;34.00;;
11620;SDS011;5866;49.094;11.900;2022-09-17T13:04:10;28.75;;;27.15;;
11620;SDS011;5866;49.094;11.900;2022-09-17T13:07:13;33.50;;;31.60;;
11620;SDS011;5866;49.094;11.900;2022-09-17T13:09:59;32.38;;;30.45;;
11620;SDS011;5866;49.094;11.900;2022-09-17T13:12:38;41.13;;;38.72;;
11620;SDS011;5866;49.094;11.900;2022-09-17T13:15:29;33.38;;;31.40;;
11620;SDS011;5866;49.094;11.900;2022-09-17T13:18:10;28.20;;;26.52;;
11620;SDS011;5866;49.094;11.900;2022-09-17T13:21:02;33.25;;;31.30;;
11620;SDS011;5866;49.094;11.900;2022-09-17T13:23:36;31.25;;;29.40;;
11620;SDS011;5866;49.094;11.900;2022-09-17T13:26:06;25.33;;;23.83;;
11620;SDS011;5866;49.094;11.900;2022-09-17T13:28:35;29.00;;;27.38;;
11620;SDS011;5866;49.094;11.900;2022-09-17T13:31:11;28.48;;;26.75;;
11620;SDS011;5866;49.094;11.900;2022-09-17T13:33:49;31.00;;;29.13;;
11620;SDS011;5866;49.094;11.900;2022-09-17T13:39:07;37.47;;;35.08;;
11620;SDS011;5866;49.094;11.900;2022-09-17T13:41:36;33.00;;;31.02;;
11620;SDS011;5866;49.094;11.900;2022-09-17T13:44:07;34.78;;;32.67;;
11620;SDS011;5866;49.094;11.900;2022-09-17T13:46:35;35.17;;;33.13;;
11620;SDS011;5866;49.094;11.900;2022-09-17T13:49:06;30.95;;;29.25;;
11620;SDS011;5866;49.094;11.900;2022-09-17T13:51:45;39.53;;;37.33;;
11620;SDS011;5866;49.094;11.900;2022-09-17T13:54:16;41.70;;;39.20;;
11620;SDS011;5866;49.094;11.900;2022-09-17T13:56:47;36.72;;;34.53;;
11620;SDS011;5866;49.094;11.900;2022-09-17T13:59:28;27.85;;;26.25;;
11620;SDS011;5866;49.094;11.900;2022-09-17T14:01:57;37.38;;;35.20;;
11620;SDS011;5866;49.094;11.900;2022-09-17T14:07:31;26.45;;;24.90;;
11620;SDS011;5866;49.094;11.900;2022-09-17T14:10:01;26.63;;;25.10;;
11620;SDS011;5866;49.094;11.900;2022-09-17T14:12:50;31.02;;;29.40;;
11620;SDS011;5866;49.094;11.900;2022-09-17T14:18:36;38.53;;;36.45;;
11620;SDS011;5866;49.094;11.900;2022-09-17T14:21:13;43.55;;;40.58;;
11620;SDS011;5866;49.094;11.900;2022-09-17T14:23:48;36.70;;;34.55;;
11620;SDS011;5866;49.094;11.900;2022-09-17T14:26:24;30.30;;;28.60;;
11620;SDS011;5866;49.094;11.900;2022-09-17T14:29:02;32.47;;;30.27;;
11620;SDS011;5866;49.094;11.900;2022-09-17T14:31:41;30.25;;;28.58;;
11620;SDS011;5866;49.094;11.900;2022-09-17T14:34:10;37.22;;;35.20;;
11620;SDS011;5866;49.094;11.900;2022-09-17T14:36:45;43.88;;;41.45;;
11620;SDS011;5866;49.094;11.900;2022-09-17T14:39:16;28.55;;;26.85;;
11620;SDS011;5866;49.094;11.900;2022-09-17T14:41:47;21.45;;;20.23;;
11620;SDS011;5866;49.094;11.900;2022-09-17T14:44:17;31.08;;;28.98;;
11620;SDS011;5866;49.094;11.900;2022-09-17T14:46:47;20.67;;;19.42;;
11620;SDS011;5866;49.094;11.900;2022-09-17T14:49:21;24.55;;;23.00;;
11620;SDS011;5866;49.094;11.900;2022-09-17T14:51:50;25.42;;;24.05;;
11620;SDS011;5866;49.094;11.900;2022-09-17T14:54:21;28.98;;;27.17;;
11620;SDS011;5866;49.094;11.900;2022-09-17T14:56:57;105.57;;;98.50;;
11620;SDS011;5866;49.094;11.900;2022-09-17T14:59:27;24.83;;;23.27;;
11620;SDS011;5866;49.094;11.900;2022-09-17T15:02:03;24.52;;;23.23;;
11620;SDS011;5866;49.094;11.900;2022-09-17T15:04:46;12.53;;;11.83;;
11620;SDS011;5866;49.094;11.900;2022-09-17T15:07:13;20.10;;;19.00;;
11620;SDS011;5866;49.094;11.900;2022-09-17T15:09:42;24.70;;;23.33;;
11620;SDS011;5866;49.094;11.900;2022-09-17T15:12:10;24.63;;;23.33;;
11620;SDS011;5866;49.094;11.900;2022-09-17T15:14:44;31.73;;;30.03;;
11620;SDS011;5866;49.094;11.900;2022-09-17T15:17:14;40.03;;;37.83;;